Corrigin, Australia
Current Conditions -  °F | °C
As of 2:41 AM on Monday 22 Dec 2014 (Local Time) from YPPH Reporting Station
Clear Clear  
Wind Chill: 64°   Ceiling: Unl
Heat Index: 64°   Visibility: 6mi
Dew Point: 54°   Wind: 17mph
Humidity: 68%   Direction: 90°E
Pressure: 29.97"   Gusts: 29mph
Location:  32.33°S, 117.87°E
Report Text: YPPH 211841Z 09015G25KT CAVOK 18/12 Q1015
Loading
Personal Weather Stations






























Interactive Weather Map New forecast layout! Learn more

10-Day Weather Forecast

Advertisements
Track Severe Weather on mobile